Time;durP1;ratioP1;P1;durP2;ratioP2;P2;SDS_P1;SDS_P2;PMS_P1;PMS_P2;Temp;Humidity;BMP_temperature;BMP_pressure;BME280_temperature;BME280_humidity;BME280_pressure;Samples;Min_cycle;Max_cycle;Signal;HPM_P1;HPM_P2
2023/08/16 00:00:08;;;;;;;3.50;1.70;;;;;;;;;;5004998;28;20225;-86
2023/08/16 00:02:38;;;;;;;7.40;2.25;;;;;;;;;;5001512;28;20239;-86
2023/08/16 00:05:07;;;;;;;3.83;1.50;;;;;;;;;;4985033;28;20228;-86
2023/08/16 00:07:34;;;;;;;3.70;1.60;;;;;;;;;;4985065;28;20225;-86
2023/08/16 00:10:02;;;;;;;2.08;1.38;;;;;;;;;;4990934;28;20316;-86
2023/08/16 00:12:28;;;;;;;2.80;1.40;;;;;;;;;;4994918;28;20225;-87
2023/08/16 00:14:56;;;;;;;2.20;1.58;;;;;;;;;;4987153;28;20510;-86
2023/08/16 00:17:24;;;;;;;3.92;1.60;;;;;;;;;;4985526;28;20221;-86
2023/08/16 00:19:54;;;;;;;3.92;2.17;;;;;;;;;;4985229;28;20677;-86
2023/08/16 00:22:20;;;;;;;6.53;2.05;;;;;;;;;;4984980;28;20220;-86
2023/08/16 00:24:47;;;;;;;2.88;1.60;;;;;;;;;;4994108;28;20223;-86
2023/08/16 00:27:17;;;;;;;3.45;1.60;;;;;;;;;;4985781;28;20250;-86
2023/08/16 00:29:46;;;;;;;2.58;1.73;;;;;;;;;;5001397;28;20236;-86
2023/08/16 00:32:14;;;;;;;1.92;1.80;;;;;;;;;;5003400;28;20300;-86
2023/08/16 00:34:39;;;;;;;2.83;1.50;;;;;;;;;;5024410;28;20220;-85
2023/08/16 00:37:05;;;;;;;3.63;2.00;;;;;;;;;;4988591;28;20593;-85
2023/08/16 00:39:30;;;;;;;2.78;1.60;;;;;;;;;;5028687;28;20212;-85
2023/08/16 00:41:56;;;;;;;2.67;1.77;;;;;;;;;;4994100;28;20225;-85
2023/08/16 00:44:24;;;;;;;6.43;1.95;;;;;;;;;;5041895;28;20205;-85
2023/08/16 00:46:50;;;;;;;2.58;1.77;;;;;;;;;;5020768;28;20212;-87
2023/08/16 00:49:20;;;;;;;2.45;1.75;;;;;;;;;;5005806;28;20201;-86
2023/08/16 00:51:47;;;;;;;3.35;1.98;;;;;;;;;;5020140;28;20216;-85
2023/08/16 00:54:12;;;;;;;3.15;1.98;;;;;;;;;;5024303;28;20235;-85
2023/08/16 00:56:38;;;;;;;2.72;1.48;;;;;;;;;;5006668;28;20233;-87
2023/08/16 00:59:06;;;;;;;10.95;2.40;;;;;;;;;;5009974;28;20221;-85
2023/08/16 01:01:31;;;;;;;5.38;2.05;;;;;;;;;;5025189;28;20235;-86
2023/08/16 01:03:59;;;;;;;2.05;1.50;;;;;;;;;;5025768;28;20229;-87
2023/08/16 01:06:25;;;;;;;2.28;1.60;;;;;;;;;;4977679;28;20233;-86
2023/08/16 01:08:50;;;;;;;3.75;1.80;;;;;;;;;;5000790;28;20220;-86
2023/08/16 01:11:28;;;;;;;6.05;2.03;;;;;;;;;;4982097;28;20651;-87
2023/08/16 01:13:57;;;;;;;3.28;1.65;;;;;;;;;;4999607;28;20643;-85
2023/08/16 01:16:24;;;;;;;4.93;1.73;;;;;;;;;;5024942;28;20233;-86
2023/08/16 01:18:50;;;;;;;2.90;1.83;;;;;;;;;;5003388;28;20224;-86
2023/08/16 01:21:16;;;;;;;2.47;1.70;;;;;;;;;;5008544;28;20220;-85
2023/08/16 01:24:05;;;;;;;1.70;1.50;;;;;;;;;;4995186;28;20244;-86
2023/08/16 01:26:37;;;;;;;3.50;1.83;;;;;;;;;;5021687;28;20213;-85
2023/08/16 01:29:05;;;;;;;4.38;1.90;;;;;;;;;;5015313;28;20212;-86
2023/08/16 01:31:35;;;;;;;2.92;1.92;;;;;;;;;;4975560;28;20225;-86
2023/08/16 01:34:07;;;;;;;2.65;2.13;;;;;;;;;;4982763;28;20213;-86
2023/08/16 01:36:33;;;;;;;5.63;1.80;;;;;;;;;;4990453;28;20237;-86
2023/08/16 01:39:00;;;;;;;3.28;1.92;;;;;;;;;;4999950;28;20223;-86
2023/08/16 01:41:42;;;;;;;2.83;1.77;;;;;;;;;;5006682;28;20304;-86
2023/08/16 01:44:08;;;;;;;6.80;2.10;;;;;;;;;;5013877;28;20690;-85
2023/08/16 01:46:34;;;;;;;3.13;1.88;;;;;;;;;;4992768;28;20221;-86
2023/08/16 01:48:59;;;;;;;3.75;1.90;;;;;;;;;;5006867;28;20213;-86
2023/08/16 01:51:25;;;;;;;2.88;1.98;;;;;;;;;;5004148;28;20869;-87
2023/08/16 01:53:56;;;;;;;7.82;2.85;;;;;;;;;;5011503;28;20205;-86
2023/08/16 01:56:24;;;;;;;5.65;2.55;;;;;;;;;;4996872;28;20221;-87
2023/08/16 01:58:52;;;;;;;2.33;1.92;;;;;;;;;;5005089;28;20756;-86
2023/08/16 02:01:18;;;;;;;6.85;2.35;;;;;;;;;;4990068;28;20244;-86
2023/08/16 02:03:43;;;;;;;4.82;1.83;;;;;;;;;;5002212;28;20255;-85
2023/08/16 02:06:09;;;;;;;5.72;1.90;;;;;;;;;;4991702;28;20627;-86
2023/08/16 02:08:38;;;;;;;4.30;2.10;;;;;;;;;;4998382;28;20209;-87
2023/08/16 02:11:04;;;;;;;2.25;1.88;;;;;;;;;;4997103;28;20224;-84
2023/08/16 02:13:30;;;;;;;4.72;1.75;;;;;;;;;;4984839;28;20228;-84
2023/08/16 02:16:02;;;;;;;1.90;1.67;;;;;;;;;;4978550;28;20201;-84
2023/08/16 02:18:30;;;;;;;3.35;2.15;;;;;;;;;;4996359;28;20877;-84
2023/08/16 02:21:00;;;;;;;3.40;1.95;;;;;;;;;;4979542;28;20220;-84
2023/08/16 02:23:26;;;;;;;2.05;1.83;;;;;;;;;;5006760;28;20236;-86
2023/08/16 02:25:51;;;;;;;2.58;1.95;;;;;;;;;;5008372;28;20205;-85
2023/08/16 02:28:20;;;;;;;2.05;1.75;;;;;;;;;;5002115;28;20220;-85
2023/08/16 02:30:46;;;;;;;2.80;1.80;;;;;;;;;;4993360;28;20247;-86
2023/08/16 02:33:11;;;;;;;6.25;1.90;;;;;;;;;;4994133;28;20644;-86
2023/08/16 02:35:39;;;;;;;5.93;2.28;;;;;;;;;;4996147;28;20233;-86
2023/08/16 02:38:05;;;;;;;1.90;1.80;;;;;;;;;;5003620;28;20227;-86
2023/08/16 02:40:30;;;;;;;1.83;1.73;;;;;;;;;;4983507;28;20253;-84
2023/08/16 02:42:56;;;;;;;3.63;1.88;;;;;;;;;;4975207;28;20213;-84
2023/08/16 02:45:21;;;;;;;3.72;1.75;;;;;;;;;;4970879;28;20323;-84
2023/08/16 02:47:50;;;;;;;3.60;1.80;;;;;;;;;;4997409;28;20245;-84
2023/08/16 02:50:16;;;;;;;4.20;2.15;;;;;;;;;;5003023;28;20209;-86
2023/08/16 02:52:42;;;;;;;1.98;1.75;;;;;;;;;;4995791;28;20270;-86
2023/08/16 02:55:10;;;;;;;4.43;1.85;;;;;;;;;;4984246;28;20683;-86
2023/08/16 02:57:42;;;;;;;2.88;1.88;;;;;;;;;;5017838;28;20224;-86
2023/08/16 03:00:13;;;;;;;2.30;1.90;;;;;;;;;;4986394;28;21120;-84
2023/08/16 03:02:42;;;;;;;3.90;2.17;;;;;;;;;;5001133;28;20296;-85
2023/08/16 03:05:10;;;;;;;4.63;1.88;;;;;;;;;;4997178;28;20339;-84
2023/08/16 03:07:39;;;;;;;4.68;1.83;;;;;;;;;;5003466;28;20222;-87
2023/08/16 03:10:07;;;;;;;3.40;2.00;;;;;;;;;;5024828;28;20264;-87
2023/08/16 03:12:35;;;;;;;3.28;2.25;;;;;;;;;;5024492;28;20352;-86
2023/08/16 03:15:05;;;;;;;2.20;1.95;;;;;;;;;;4996726;28;20249;-83
2023/08/16 03:17:35;;;;;;;2.13;1.88;;;;;;;;;;4988026;28;20243;-87
2023/08/16 03:20:03;;;;;;;2.50;1.98;;;;;;;;;;4983959;28;20270;-87
2023/08/16 03:22:31;;;;;;;2.88;1.90;;;;;;;;;;4974365;28;20602;-86
2023/08/16 03:25:00;;;;;;;3.38;2.30;;;;;;;;;;4993286;28;20265;-86
2023/08/16 03:27:25;;;;;;;3.20;2.42;;;;;;;;;;5008775;28;20229;-86
2023/08/16 03:29:53;;;;;;;4.50;2.40;;;;;;;;;;4997360;28;20231;-87
2023/08/16 03:32:21;;;;;;;2.47;1.95;;;;;;;;;;5004001;28;20229;-86
2023/08/16 03:34:49;;;;;;;7.53;2.28;;;;;;;;;;4976668;28;20208;-85
2023/08/16 03:37:15;;;;;;;3.92;2.42;;;;;;;;;;4995098;28;20236;-86
2023/08/16 03:39:44;;;;;;;3.70;2.15;;;;;;;;;;4977559;28;20224;-86
2023/08/16 03:42:09;;;;;;;4.13;2.22;;;;;;;;;;4966896;28;20236;-85
2023/08/16 03:44:35;;;;;;;3.15;2.15;;;;;;;;;;4994789;28;20697;-80
2023/08/16 03:47:01;;;;;;;5.82;2.05;;;;;;;;;;4992563;28;20228;-79
2023/08/16 03:49:29;;;;;;;3.65;2.00;;;;;;;;;;4997414;28;20221;-78
2023/08/16 03:51:56;;;;;;;2.10;1.88;;;;;;;;;;5001184;28;20322;-79
2023/08/16 03:54:21;;;;;;;3.63;2.28;;;;;;;;;;4995673;28;20234;-78
2023/08/16 03:56:47;;;;;;;6.07;2.13;;;;;;;;;;4998488;28;20231;-78
2023/08/16 03:59:17;;;;;;;3.85;2.10;;;;;;;;;;5000703;28;20212;-79
2023/08/16 04:05:32;;;;;;;3.95;1.90;;;;;;;;;;5008061;28;20303;-77
2023/08/16 04:08:00;;;;;;;3.35;1.95;;;;;;;;;;4989413;28;20254;-78
2023/08/16 04:10:26;;;;;;;5.50;1.75;;;;;;;;;;5005270;28;20279;-78
2023/08/16 04:12:51;;;;;;;6.80;1.77;;;;;;;;;;5007190;28;20228;-79
2023/08/16 04:15:19;;;;;;;3.20;2.10;;;;;;;;;;4992445;28;20588;-78
2023/08/16 04:17:45;;;;;;;3.42;1.70;;;;;;;;;;4974379;28;20303;-78
2023/08/16 04:20:11;;;;;;;3.58;1.95;;;;;;;;;;4989315;28;20593;-78
2023/08/16 04:22:36;;;;;;;5.57;2.22;;;;;;;;;;5026951;28;20231;-79
2023/08/16 04:25:03;;;;;;;2.10;1.80;;;;;;;;;;5004970;28;20701;-79
2023/08/16 04:27:29;;;;;;;4.45;2.10;;;;;;;;;;5012964;28;20625;-79
2023/08/16 04:29:57;;;;;;;2.70;1.90;;;;;;;;;;5024803;28;20320;-79
2023/08/16 04:32:23;;;;;;;6.85;2.10;;;;;;;;;;4981989;28;20245;-79
2023/08/16 04:34:49;;;;;;;4.85;2.13;;;;;;;;;;5028460;28;20220;-79
2023/08/16 04:37:17;;;;;;;1.80;1.65;;;;;;;;;;4990341;28;20221;-79
2023/08/16 04:39:42;;;;;;;3.97;2.10;;;;;;;;;;5009091;28;20216;-79
2023/08/16 04:42:09;;;;;;;8.70;2.30;;;;;;;;;;5000444;28;20225;-79
2023/08/16 04:44:36;;;;;;;3.85;2.17;;;;;;;;;;4990965;28;20221;-79
2023/08/16 04:47:01;;;;;;;5.28;2.15;;;;;;;;;;4990259;28;20217;-78
2023/08/16 04:49:28;;;;;;;2.33;1.60;;;;;;;;;;5007268;28;20217;-79
2023/08/16 04:51:58;;;;;;;2.67;1.88;;;;;;;;;;4980308;28;20248;-79
2023/08/16 04:54:23;;;;;;;4.03;2.05;;;;;;;;;;5017228;28;20221;-79
2023/08/16 04:56:51;;;;;;;2.80;1.90;;;;;;;;;;5013219;28;20252;-78
2023/08/16 04:59:17;;;;;;;4.35;2.25;;;;;;;;;;4983838;28;20254;-77
2023/08/16 05:01:46;;;;;;;6.40;2.10;;;;;;;;;;4991027;28;20720;-79
2023/08/16 05:04:12;;;;;;;5.43;2.15;;;;;;;;;;4994370;28;20312;-79
2023/08/16 05:06:42;;;;;;;7.60;2.30;;;;;;;;;;4985230;28;20235;-79
2023/08/16 05:09:08;;;;;;;5.07;2.00;;;;;;;;;;5013126;28;20267;-79
2023/08/16 05:11:37;;;;;;;3.95;2.40;;;;;;;;;;5007215;28;20537;-81
2023/08/16 05:14:04;;;;;;;4.13;2.20;;;;;;;;;;5026537;28;20213;-79
2023/08/16 05:16:32;;;;;;;4.80;2.13;;;;;;;;;;5012550;28;20212;-79
2023/08/16 05:18:58;;;;;;;4.22;1.85;;;;;;;;;;5003835;28;20236;-79
2023/08/16 05:21:27;;;;;;;8.38;2.67;;;;;;;;;;4983117;28;20225;-79
2023/08/16 05:23:53;;;;;;;6.75;2.17;;;;;;;;;;4991615;28;20217;-78
2023/08/16 05:26:18;;;;;;;10.18;2.25;;;;;;;;;;5001356;28;20244;-78
2023/08/16 05:28:46;;;;;;;5.78;2.30;;;;;;;;;;5010644;28;20255;-79
2023/08/16 05:31:15;;;;;;;3.72;2.13;;;;;;;;;;4997956;28;20308;-80
2023/08/16 05:33:43;;;;;;;5.25;1.88;;;;;;;;;;5011055;28;20278;-79
2023/08/16 05:36:08;;;;;;;2.55;2.00;;;;;;;;;;5016207;28;20223;-80
2023/08/16 05:38:34;;;;;;;4.90;2.40;;;;;;;;;;4995148;28;20225;-78
2023/08/16 05:41:05;;;;;;;8.65;2.72;;;;;;;;;;5010602;28;20224;-78
2023/08/16 05:43:31;;;;;;;8.35;2.45;;;;;;;;;;5014160;28;20217;-78
2023/08/16 05:45:56;;;;;;;4.53;2.10;;;;;;;;;;5007839;28;21030;-80
2023/08/16 05:48:25;;;;;;;3.88;2.72;;;;;;;;;;5010290;28;21726;-78
2023/08/16 05:50:50;;;;;;;4.82;2.25;;;;;;;;;;5011241;28;20296;-78
2023/08/16 05:53:18;;;;;;;5.72;2.10;;;;;;;;;;5007492;28;20793;-78
2023/08/16 05:55:44;;;;;;;4.95;2.13;;;;;;;;;;4990429;28;20256;-78
2023/08/16 05:58:14;;;;;;;8.43;2.63;;;;;;;;;;5028460;28;20642;-79
2023/08/16 06:00:43;;;;;;;5.32;2.72;;;;;;;;;;5023380;28;20634;-79
2023/08/16 06:03:08;;;;;;;5.28;2.20;;;;;;;;;;5002083;28;20212;-77
2023/08/16 06:05:36;;;;;;;5.30;2.40;;;;;;;;;;5001648;28;20220;-78
2023/08/16 06:08:08;;;;;;;6.93;2.33;;;;;;;;;;4990182;28;20331;-78
2023/08/16 06:10:38;;;;;;;4.15;2.25;;;;;;;;;;5005829;28;20702;-78
2023/08/16 06:13:06;;;;;;;5.32;2.50;;;;;;;;;;4995898;28;20708;-78
2023/08/16 06:15:31;;;;;;;4.35;2.38;;;;;;;;;;4991173;28;20298;-78
2023/08/16 06:17:57;;;;;;;4.78;2.40;;;;;;;;;;5000716;28;20232;-79
2023/08/16 06:20:22;;;;;;;4.68;2.60;;;;;;;;;;5000933;28;20267;-79
2023/08/16 06:22:51;;;;;;;4.55;2.83;;;;;;;;;;4986961;28;20225;-79
2023/08/16 06:25:19;;;;;;;4.45;2.80;;;;;;;;;;5018024;28;21084;-78
2023/08/16 06:27:46;;;;;;;6.95;2.58;;;;;;;;;;4988139;28;20237;-78
2023/08/16 06:30:17;;;;;;;5.03;2.30;;;;;;;;;;5006054;28;20235;-78
2023/08/16 06:32:45;;;;;;;5.88;2.28;;;;;;;;;;4984954;28;20311;-80
2023/08/16 06:35:10;;;;;;;7.38;2.75;;;;;;;;;;4984195;28;20217;-78
2023/08/16 06:37:37;;;;;;;7.60;2.63;;;;;;;;;;5000919;28;20225;-78
2023/08/16 06:40:07;;;;;;;4.93;2.30;;;;;;;;;;4999606;28;20235;-77
2023/08/16 06:42:32;;;;;;;6.40;2.45;;;;;;;;;;4985139;28;20696;-78
2023/08/16 06:45:05;;;;;;;3.92;2.35;;;;;;;;;;4983643;28;20224;-77
2023/08/16 06:47:33;;;;;;;6.53;2.40;;;;;;;;;;4999925;28;20236;-77
2023/08/16 06:50:04;;;;;;;5.93;2.65;;;;;;;;;;5022902;28;20225;-77
2023/08/16 06:52:30;;;;;;;6.43;2.35;;;;;;;;;;4998775;28;20229;-77
2023/08/16 06:54:55;;;;;;;5.53;2.40;;;;;;;;;;4974879;28;20219;-79
2023/08/16 06:57:23;;;;;;;6.35;2.55;;;;;;;;;;4989665;28;20229;-78
2023/08/16 06:59:49;;;;;;;7.25;2.58;;;;;;;;;;4997015;28;20267;-78
2023/08/16 07:02:20;;;;;;;6.80;2.47;;;;;;;;;;4994635;28;20217;-78
2023/08/16 07:04:46;;;;;;;6.80;2.53;;;;;;;;;;5006804;28;20251;-78
2023/08/16 07:07:14;;;;;;;6.93;2.40;;;;;;;;;;5012149;28;20220;-78
2023/08/16 07:09:41;;;;;;;6.25;2.55;;;;;;;;;;5003183;28;20228;-79
2023/08/16 07:12:10;;;;;;;3.58;2.13;;;;;;;;;;4985801;28;20670;-79
2023/08/16 07:14:35;;;;;;;6.82;2.42;;;;;;;;;;5009643;28;20229;-78
2023/08/16 07:17:05;;;;;;;6.72;2.80;;;;;;;;;;5005556;28;20224;-78
2023/08/16 07:19:30;;;;;;;5.00;2.03;;;;;;;;;;4988560;28;20235;-78
2023/08/16 07:21:58;;;;;;;6.50;2.70;;;;;;;;;;4999809;28;20289;-79
2023/08/16 07:24:23;;;;;;;4.80;2.42;;;;;;;;;;4997526;28;20296;-77
2023/08/16 07:26:49;;;;;;;3.50;1.98;;;;;;;;;;4984191;28;20223;-77
2023/08/16 07:29:17;;;;;;;5.10;2.50;;;;;;;;;;4996300;28;20702;-79
2023/08/16 07:31:45;;;;;;;5.03;2.25;;;;;;;;;;5002756;28;20323;-79
2023/08/16 07:34:11;;;;;;;4.38;2.08;;;;;;;;;;4990419;28;20221;-78
2023/08/16 07:36:43;;;;;;;7.20;2.45;;;;;;;;;;4995810;28;20227;-78
2023/08/16 07:39:09;;;;;;;5.00;2.40;;;;;;;;;;5007312;28;20218;-78
2023/08/16 07:41:37;;;;;;;6.93;2.28;;;;;;;;;;4996834;28;20255;-79
2023/08/16 07:44:09;;;;;;;6.10;2.55;;;;;;;;;;4990155;28;20832;-78
2023/08/16 07:46:34;;;;;;;4.05;2.40;;;;;;;;;;5004453;28;20323;-78
2023/08/16 07:49:00;;;;;;;6.10;2.70;;;;;;;;;;5001418;28;20309;-78
2023/08/16 07:51:25;;;;;;;7.28;2.25;;;;;;;;;;5002531;28;20221;-78
2023/08/16 07:53:53;;;;;;;4.07;2.17;;;;;;;;;;4986516;28;20240;-78
2023/08/16 07:56:21;;;;;;;4.38;2.17;;;;;;;;;;4997931;28;20232;-79
2023/08/16 07:58:48;;;;;;;7.00;2.45;;;;;;;;;;5002888;28;20612;-79
2023/08/16 08:01:17;;;;;;;3.42;2.20;;;;;;;;;;5008620;28;20251;-79
2023/08/16 08:03:50;;;;;;;4.00;2.17;;;;;;;;;;5030118;28;20303;-80
2023/08/16 08:06:33;;;;;;;9.68;2.33;;;;;;;;;;5025669;28;20237;-80
2023/08/16 08:09:13;;;;;;;7.35;2.60;;;;;;;;;;5013269;28;20239;-78
2023/08/16 08:15:03;;;;;;;5.32;2.22;;;;;;;;;;5020045;28;20241;-79
2023/08/16 08:17:36;;;;;;;8.05;2.20;;;;;;;;;;5013542;28;20243;-78
2023/08/16 08:20:15;;;;;;;7.10;2.28;;;;;;;;;;4998745;28;20226;-78
2023/08/16 08:22:59;;;;;;;5.55;2.38;;;;;;;;;;4987706;28;20244;-78
2023/08/16 08:25:34;;;;;;;5.03;2.03;;;;;;;;;;4996510;28;20266;-78
2023/08/16 08:28:03;;;;;;;4.65;2.30;;;;;;;;;;5010621;28;20676;-78
2023/08/16 08:30:29;;;;;;;6.72;2.20;;;;;;;;;;4990538;28;20736;-77
2023/08/16 08:33:19;;;;;;;5.63;2.25;;;;;;;;;;4986703;28;20247;-79
2023/08/16 08:36:03;;;;;;;6.22;2.63;;;;;;;;;;4993286;28;20788;-78
2023/08/16 08:38:57;;;;;;;5.05;2.13;;;;;;;;;;5009019;28;20225;-76
2023/08/16 08:41:32;;;;;;;6.05;2.65;;;;;;;;;;5002377;28;20260;-78
2023/08/16 08:44:04;;;;;;;7.75;2.38;;;;;;;;;;4982251;28;20267;-78
2023/08/16 08:46:30;;;;;;;8.20;2.25;;;;;;;;;;5001313;28;20268;-79
2023/08/16 08:49:19;;;;;;;3.05;2.05;;;;;;;;;;4983713;28;20678;-76
2023/08/16 08:51:50;;;;;;;3.30;2.35;;;;;;;;;;5003539;28;20850;-78
2023/08/16 08:54:20;;;;;;;6.20;2.47;;;;;;;;;;5001016;28;20255;-77
2023/08/16 08:56:56;;;;;;;4.28;2.10;;;;;;;;;;4983878;28;20980;-76
2023/08/16 08:59:38;;;;;;;7.40;2.45;;;;;;;;;;5011210;28;20221;-76
2023/08/16 09:02:14;;;;;;;5.05;2.28;;;;;;;;;;5015602;28;20301;-76
2023/08/16 09:08:13;;;;;;;4.13;2.22;;;;;;;;;;5008360;28;20224;-77
2023/08/16 09:10:39;;;;;;;5.07;2.38;;;;;;;;;;4982367;28;20225;-76
2023/08/16 09:13:21;;;;;;;8.38;2.67;;;;;;;;;;4985980;28;20231;-77
2023/08/16 09:15:46;;;;;;;4.97;2.60;;;;;;;;;;4987346;28;20224;-79
2023/08/16 09:18:27;;;;;;;7.95;2.67;;;;;;;;;;4991433;28;20221;-80
2023/08/16 09:20:53;;;;;;;5.50;2.20;;;;;;;;;;4990515;28;20259;-80
2023/08/16 09:24:06;;;;;;;5.53;2.17;;;;;;;;;;4992523;28;20227;-79
2023/08/16 09:26:36;;;;;;;8.27;2.50;;;;;;;;;;4990376;28;20235;-79
2023/08/16 09:29:13;;;;;;;6.45;2.30;;;;;;;;;;4985524;28;20251;-78
2023/08/16 09:34:50;;;;;;;7.90;2.72;;;;;;;;;;4922436;29;20266;-80
2023/08/16 09:37:38;;;;;;;4.20;1.75;;;;;;;;;;4925837;29;20234;-79
2023/08/16 09:40:25;;;;;;;3.67;2.13;;;;;;;;;;4948867;28;20648;-78
2023/08/16 09:43:58;;;;;;;6.70;2.35;;;;;;;;;;4942516;29;20226;-79
2023/08/16 09:46:58;;;;;;;4.05;2.30;;;;;;;;;;4836719;29;20230;-78
2023/08/16 09:53:04;;;;;;;4.47;1.80;;;;;;;;;;4826580;29;20242;-80
2023/08/16 09:55:51;;;;;;;5.95;2.50;;;;;;;;;;4893008;29;20231;-79
2023/08/16 09:58:18;;;;;;;3.83;2.10;;;;;;;;;;4892096;29;20244;-79
2023/08/16 10:00:48;;;;;;;5.63;2.15;;;;;;;;;;4892640;29;20279;-80
2023/08/16 10:03:44;;;;;;;3.15;1.98;;;;;;;;;;4914168;29;20574;-80
2023/08/16 10:06:18;;;;;;;7.38;2.40;;;;;;;;;;4844268;29;21010;-79
2023/08/16 10:08:58;;;;;;;3.90;2.15;;;;;;;;;;4906617;29;20222;-79
2023/08/16 10:11:24;;;;;;;3.80;2.33;;;;;;;;;;4902841;28;20234;-79
2023/08/16 10:13:52;;;;;;;3.90;2.35;;;;;;;;;;4919262;28;20241;-79
2023/08/16 10:16:51;;;;;;;5.50;2.50;;;;;;;;;;4929365;28;20634;-80
2023/08/16 10:23:12;;;;;;;3.00;1.90;;;;;;;;;;5006738;28;20224;-79
2023/08/16 10:26:01;;;;;;;2.95;2.20;;;;;;;;;;4968660;28;20235;-79
2023/08/16 10:29:03;;;;;;;3.53;1.95;;;;;;;;;;5021110;28;20220;-79
2023/08/16 10:31:52;;;;;;;7.60;2.15;;;;;;;;;;5006692;28;20275;-78
2023/08/16 10:34:37;;;;;;;5.00;1.88;;;;;;;;;;5008454;28;20248;-80
2023/08/16 10:37:15;;;;;;;6.88;2.10;;;;;;;;;;4984316;28;20225;-79
2023/08/16 10:39:49;;;;;;;5.95;1.95;;;;;;;;;;5000364;28;20229;-79
2023/08/16 10:42:33;;;;;;;4.72;2.20;;;;;;;;;;4999842;28;20228;-79
2023/08/16 10:45:14;;;;;;;4.68;2.20;;;;;;;;;;5009298;28;20228;-79
2023/08/16 10:47:43;;;;;;;3.80;1.95;;;;;;;;;;4981810;28;20303;-79
2023/08/16 10:50:31;;;;;;;5.32;1.65;;;;;;;;;;4994026;28;20577;-79
2023/08/16 10:53:00;;;;;;;5.88;2.53;;;;;;;;;;5007869;28;20221;-78
2023/08/16 10:55:39;;;;;;;2.85;1.60;;;;;;;;;;5004333;28;20709;-78
2023/08/16 10:58:23;;;;;;;4.63;2.30;;;;;;;;;;5001792;28;20286;-79
2023/08/16 11:02:04;;;;;;;5.13;1.98;;;;;;;;;;4978845;28;20719;-79
2023/08/16 11:04:46;;;;;;;4.25;1.65;;;;;;;;;;4997008;28;20289;-78
2023/08/16 11:07:36;;;;;;;2.08;1.30;;;;;;;;;;5008043;28;20223;-79
2023/08/16 11:14:07;;;;;;;2.97;1.77;;;;;;;;;;4909742;29;20302;-78
2023/08/16 11:20:20;;;;;;;2.53;1.75;;;;;;;;;;5002168;28;20671;-79
2023/08/16 11:22:57;;;;;;;2.90;1.80;;;;;;;;;;4997559;28;20344;-79
2023/08/16 11:25:36;;;;;;;2.28;1.60;;;;;;;;;;4983926;28;20220;-79
2023/08/16 11:28:07;;;;;;;5.35;1.90;;;;;;;;;;5005748;28;20224;-79
2023/08/16 11:30:35;;;;;;;4.20;1.83;;;;;;;;;;5000723;28;20319;-77
2023/08/16 11:36:37;;;;;;;2.55;1.35;;;;;;;;;;5008838;28;20259;-78
2023/08/16 11:45:22;;;;;;;3.05;2.08;;;;;;;;;;4967102;28;20228;-79
2023/08/16 11:48:02;;;;;;;2.33;1.90;;;;;;;;;;4965827;28;20626;-79
2023/08/16 11:50:42;;;;;;;2.42;1.80;;;;;;;;;;4974834;28;20229;-78
2023/08/16 11:53:43;;;;;;;2.90;1.77;;;;;;;;;;4958006;28;20272;-78
2023/08/16 11:56:38;;;;;;;3.42;2.22;;;;;;;;;;4894584;29;20673;-77
2023/08/16 11:59:41;;;;;;;3.20;2.20;;;;;;;;;;4894126;29;20240;-77
2023/08/16 12:02:07;;;;;;;4.43;2.30;;;;;;;;;;4884022;29;20251;-78
2023/08/16 12:04:35;;;;;;;3.63;1.95;;;;;;;;;;4879365;29;20233;-76
2023/08/16 12:07:14;;;;;;;2.22;1.88;;;;;;;;;;4887705;29;20228;-79
2023/08/16 12:10:32;;;;;;;3.03;2.05;;;;;;;;;;4881924;29;20205;-78
2023/08/16 12:13:14;;;;;;;7.18;2.45;;;;;;;;;;4904564;29;20237;-77
2023/08/16 12:20:18;;;;;;;2.60;2.05;;;;;;;;;;4842835;29;20257;-78
2023/08/16 12:23:02;;;;;;;2.92;1.98;;;;;;;;;;4851309;29;20691;-79
2023/08/16 12:25:39;;;;;;;3.75;2.15;;;;;;;;;;4876905;29;20233;-77
2023/08/16 12:28:08;;;;;;;2.25;1.85;;;;;;;;;;4838648;29;20241;-78
2023/08/16 12:30:52;;;;;;;3.08;2.03;;;;;;;;;;4902311;29;20263;-78
2023/08/16 12:33:26;;;;;;;2.75;2.05;;;;;;;;;;4877028;28;20219;-79
2023/08/16 12:36:17;;;;;;;4.80;2.08;;;;;;;;;;4933493;28;20218;-79
2023/08/16 12:43:06;;;;;;;3.78;2.00;;;;;;;;;;4948658;28;20334;-78
2023/08/16 12:53:10;;;;;;;4.45;1.98;;;;;;;;;;5006510;28;20287;-77
2023/08/16 12:55:36;;;;;;;2.17;1.70;;;;;;;;;;5005980;28;20221;-79
2023/08/16 12:58:02;;;;;;;4.47;1.92;;;;;;;;;;5006896;28;20274;-77
2023/08/16 13:00:30;;;;;;;3.30;1.92;;;;;;;;;;5010139;28;20271;-79
2023/08/16 13:02:57;;;;;;;2.60;1.85;;;;;;;;;;5009745;28;20232;-79
2023/08/16 13:05:24;;;;;;;2.25;1.65;;;;;;;;;;4997546;28;20248;-80
2023/08/16 13:07:50;;;;;;;5.28;1.88;;;;;;;;;;5018842;28;20606;-76
2023/08/16 13:10:15;;;;;;;2.45;1.70;;;;;;;;;;5007398;28;21203;-79
2023/08/16 13:12:41;;;;;;;3.53;1.73;;;;;;;;;;5000372;28;20237;-79
2023/08/16 13:15:11;;;;;;;3.80;2.10;;;;;;;;;;5000578;28;20240;-78
2023/08/16 13:17:38;;;;;;;2.75;1.80;;;;;;;;;;4984885;28;20213;-78
2023/08/16 13:20:05;;;;;;;2.33;1.35;;;;;;;;;;4980877;28;20332;-79
2023/08/16 13:22:30;;;;;;;3.92;1.70;;;;;;;;;;5004946;28;20308;-77
2023/08/16 13:24:56;;;;;;;2.00;1.50;;;;;;;;;;4999964;28;20225;-79
2023/08/16 13:27:21;;;;;;;2.35;1.48;;;;;;;;;;4998363;28;20216;-79
2023/08/16 13:29:47;;;;;;;1.65;1.20;;;;;;;;;;4995553;28;20717;-78
2023/08/16 13:32:12;;;;;;;3.63;1.30;;;;;;;;;;5001315;28;20685;-78
2023/08/16 13:34:40;;;;;;;3.70;1.48;;;;;;;;;;5001513;28;20225;-79
2023/08/16 13:37:06;;;;;;;1.63;1.23;;;;;;;;;;4990936;28;20252;-77
2023/08/16 13:39:36;;;;;;;2.78;1.30;;;;;;;;;;4990986;28;20232;-79
2023/08/16 13:42:04;;;;;;;3.15;1.58;;;;;;;;;;4997949;28;20225;-78
2023/08/16 13:44:35;;;;;;;2.95;1.40;;;;;;;;;;5001387;28;20311;-80
2023/08/16 13:47:07;;;;;;;3.80;1.45;;;;;;;;;;5002230;28;20209;-79
2023/08/16 13:49:33;;;;;;;2.80;1.60;;;;;;;;;;5008541;28;20224;-79
2023/08/16 13:51:58;;;;;;;2.13;1.40;;;;;;;;;;5009877;28;20228;-78
2023/08/16 13:54:29;;;;;;;2.67;1.58;;;;;;;;;;5008519;28;20714;-81
2023/08/16 13:56:55;;;;;;;2.13;1.50;;;;;;;;;;5005882;28;20286;-79
2023/08/16 13:59:25;;;;;;;3.40;1.42;;;;;;;;;;5004246;28;20220;-77
2023/08/16 14:01:52;;;;;;;2.13;1.65;;;;;;;;;;5003981;28;20256;-77
2023/08/16 14:04:20;;;;;;;3.55;1.48;;;;;;;;;;5005230;28;20276;-80
2023/08/16 14:06:47;;;;;;;3.35;1.35;;;;;;;;;;5007201;28;20217;-77
2023/08/16 14:09:13;;;;;;;3.05;1.52;;;;;;;;;;4988458;28;20271;-81
2023/08/16 14:11:41;;;;;;;3.05;1.30;;;;;;;;;;4992130;28;20240;-80
2023/08/16 14:14:06;;;;;;;1.30;1.20;;;;;;;;;;4998273;28;20236;-80
2023/08/16 14:16:32;;;;;;;3.45;1.48;;;;;;;;;;5008922;28;20336;-81
2023/08/16 14:18:58;;;;;;;1.98;1.50;;;;;;;;;;4984249;28;20314;-79
2023/08/16 14:21:26;;;;;;;2.67;1.60;;;;;;;;;;4996924;28;20274;-77
2023/08/16 14:23:54;;;;;;;1.85;1.33;;;;;;;;;;4984849;28;20217;-78
2023/08/16 14:26:22;;;;;;;3.22;1.65;;;;;;;;;;5000447;28;20235;-78
2023/08/16 14:28:47;;;;;;;3.13;1.40;;;;;;;;;;4983740;28;20340;-78
2023/08/16 14:31:13;;;;;;;3.88;1.33;;;;;;;;;;5001848;28;20216;-77
2023/08/16 14:33:38;;;;;;;1.95;1.30;;;;;;;;;;5000479;28;20225;-79
2023/08/16 14:36:04;;;;;;;2.92;1.20;;;;;;;;;;5006725;28;20221;-79
2023/08/16 14:38:32;;;;;;;1.33;1.20;;;;;;;;;;5002857;28;20222;-78
2023/08/16 14:41:08;;;;;;;1.10;1.10;;;;;;;;;;5002466;28;20771;-79
2023/08/16 14:43:37;;;;;;;2.22;1.52;;;;;;;;;;4994634;28;20722;-80
2023/08/16 14:46:07;;;;;;;4.75;1.48;;;;;;;;;;5011732;28;20685;-77
2023/08/16 14:48:35;;;;;;;1.90;1.38;;;;;;;;;;4992941;28;20693;-77
2023/08/16 14:51:00;;;;;;;5.07;1.42;;;;;;;;;;4986145;28;20243;-79
2023/08/16 14:53:47;;;;;;;1.85;1.30;;;;;;;;;;5000735;28;20228;-79
2023/08/16 14:56:13;;;;;;;1.58;1.42;;;;;;;;;;4991746;28;20208;-77
2023/08/16 14:58:42;;;;;;;2.53;1.20;;;;;;;;;;4987213;28;20230;-80
2023/08/16 15:01:07;;;;;;;2.83;1.30;;;;;;;;;;4969370;28;20305;-77
2023/08/16 15:03:33;;;;;;;3.58;1.40;;;;;;;;;;4993210;28;20253;-86
2023/08/16 15:06:03;;;;;;;2.92;1.83;;;;;;;;;;4980840;28;20240;-85
2023/08/16 15:08:28;;;;;;;1.85;1.15;;;;;;;;;;4981484;28;20225;-85
2023/08/16 15:10:58;;;;;;;3.55;1.50;;;;;;;;;;4992122;28;20262;-85
2023/08/16 15:13:24;;;;;;;2.25;1.55;;;;;;;;;;4988750;28;20230;-85
2023/08/16 15:15:49;;;;;;;2.67;1.65;;;;;;;;;;4978016;28;20224;-85
2023/08/16 15:18:15;;;;;;;2.45;1.38;;;;;;;;;;5005288;28;20210;-86
2023/08/16 15:20:43;;;;;;;1.95;1.25;;;;;;;;;;4955590;28;20771;-84
2023/08/16 15:23:08;;;;;;;3.38;1.70;;;;;;;;;;4985933;28;20285;-85
2023/08/16 15:25:34;;;;;;;2.03;1.38;;;;;;;;;;4996531;28;20240;-85
2023/08/16 15:28:02;;;;;;;2.38;1.48;;;;;;;;;;4993515;28;20218;-87
2023/08/16 15:30:28;;;;;;;2.83;1.60;;;;;;;;;;5002203;28;20248;-85
2023/08/16 15:32:53;;;;;;;1.80;1.58;;;;;;;;;;4990047;28;20221;-88
2023/08/16 15:35:21;;;;;;;3.13;1.60;;;;;;;;;;5001025;28;20225;-86
2023/08/16 15:37:47;;;;;;;1.80;1.40;;;;;;;;;;4996926;28;20221;-88
2023/08/16 15:40:12;;;;;;;3.20;1.45;;;;;;;;;;5011572;28;20230;-85
2023/08/16 15:42:38;;;;;;;1.15;1.05;;;;;;;;;;5005208;28;20225;-83
2023/08/16 15:45:04;;;;;;;3.22;1.45;;;;;;;;;;4999905;28;20631;-86
2023/08/16 15:47:34;;;;;;;1.63;1.10;;;;;;;;;;4977882;28;20775;-85
2023/08/16 15:50:02;;;;;;;1.90;1.38;;;;;;;;;;4988388;28;20287;-84
2023/08/16 15:52:34;;;;;;;2.88;1.60;;;;;;;;;;5006713;28;20220;-86
2023/08/16 15:55:05;;;;;;;3.55;1.33;;;;;;;;;;5027422;28;20224;-83
2023/08/16 15:57:33;;;;;;;1.83;1.30;;;;;;;;;;4968489;28;20217;-82